sensor_id;sensor_type;location;lat;lon;timestamp;P1;durP1;ratioP1;P2;durP2;ratioP2
9892;SDS011;4985;49.092;8.542;2023-02-01T00:01:40;3.70;;;2.50;;
9892;SDS011;4985;49.092;8.542;2023-02-01T00:04:07;3.13;;;2.67;;
9892;SDS011;4985;49.092;8.542;2023-02-01T00:06:33;5.17;;;2.60;;
9892;SDS011;4985;49.092;8.542;2023-02-01T00:09:02;3.73;;;2.93;;
9892;SDS011;4985;49.092;8.542;2023-02-01T00:11:29;2.60;;;2.40;;
9892;SDS011;4985;49.092;8.542;2023-02-01T00:13:56;3.17;;;2.60;;
9892;SDS011;4985;49.092;8.542;2023-02-01T00:16:23;3.50;;;2.47;;
9892;SDS011;4985;49.092;8.542;2023-02-01T00:18:57;3.13;;;2.27;;
9892;SDS011;4985;49.092;8.542;2023-02-01T00:21:25;2.90;;;2.20;;
9892;SDS011;4985;49.092;8.542;2023-02-01T00:23:53;2.53;;;2.20;;
9892;SDS011;4985;49.092;8.542;2023-02-01T00:26:22;3.53;;;2.50;;
9892;SDS011;4985;49.092;8.542;2023-02-01T00:28:52;3.23;;;1.90;;
9892;SDS011;4985;49.092;8.542;2023-02-01T00:31:19;4.13;;;2.63;;
9892;SDS011;4985;49.092;8.542;2023-02-01T00:33:46;3.63;;;2.63;;
9892;SDS011;4985;49.092;8.542;2023-02-01T00:36:13;3.37;;;2.63;;
9892;SDS011;4985;49.092;8.542;2023-02-01T00:38:40;3.30;;;2.53;;
9892;SDS011;4985;49.092;8.542;2023-02-01T00:41:07;3.17;;;2.43;;
9892;SDS011;4985;49.092;8.542;2023-02-01T00:43:38;3.87;;;2.50;;
9892;SDS011;4985;49.092;8.542;2023-02-01T00:46:05;3.20;;;2.27;;
9892;SDS011;4985;49.092;8.542;2023-02-01T00:48:32;2.67;;;2.30;;
9892;SDS011;4985;49.092;8.542;2023-02-01T00:50:59;2.33;;;1.87;;
9892;SDS011;4985;49.092;8.542;2023-02-01T00:53:25;3.37;;;2.30;;
9892;SDS011;4985;49.092;8.542;2023-02-01T00:55:52;3.63;;;2.30;;
9892;SDS011;4985;49.092;8.542;2023-02-01T00:58:19;2.93;;;1.93;;
9892;SDS011;4985;49.092;8.542;2023-02-01T01:00:47;2.87;;;1.90;;
9892;SDS011;4985;49.092;8.542;2023-02-01T01:03:14;2.30;;;1.73;;
9892;SDS011;4985;49.092;8.542;2023-02-01T01:05:44;3.30;;;2.10;;
9892;SDS011;4985;49.092;8.542;2023-02-01T01:08:10;2.30;;;1.77;;
9892;SDS011;4985;49.092;8.542;2023-02-01T01:10:37;2.17;;;1.87;;
9892;SDS011;4985;49.092;8.542;2023-02-01T01:13:03;2.87;;;2.00;;
9892;SDS011;4985;49.092;8.542;2023-02-01T01:15:30;2.10;;;1.83;;
9892;SDS011;4985;49.092;8.542;2023-02-01T01:17:58;2.80;;;2.10;;
9892;SDS011;4985;49.092;8.542;2023-02-01T01:20:24;2.77;;;1.77;;
9892;SDS011;4985;49.092;8.542;2023-02-01T01:22:51;3.87;;;2.17;;
9892;SDS011;4985;49.092;8.542;2023-02-01T01:25:18;2.10;;;1.70;;
9892;SDS011;4985;49.092;8.542;2023-02-01T01:27:44;1.57;;;1.40;;
9892;SDS011;4985;49.092;8.542;2023-02-01T01:30:11;2.50;;;1.90;;
9892;SDS011;4985;49.092;8.542;2023-02-01T01:32:38;3.20;;;1.73;;
9892;SDS011;4985;49.092;8.542;2023-02-01T01:35:06;2.67;;;2.00;;
9892;SDS011;4985;49.092;8.542;2023-02-01T01:37:34;2.70;;;1.87;;
9892;SDS011;4985;49.092;8.542;2023-02-01T01:40:01;2.43;;;1.90;;
9892;SDS011;4985;49.092;8.542;2023-02-01T01:42:28;1.53;;;1.37;;
9892;SDS011;4985;49.092;8.542;2023-02-01T01:44:58;2.00;;;1.57;;
9892;SDS011;4985;49.092;8.542;2023-02-01T01:47:29;2.57;;;1.97;;
9892;SDS011;4985;49.092;8.542;2023-02-01T01:50:00;2.73;;;1.83;;
9892;SDS011;4985;49.092;8.542;2023-02-01T01:52:29;3.10;;;1.77;;
9892;SDS011;4985;49.092;8.542;2023-02-01T01:54:56;2.77;;;2.10;;
9892;SDS011;4985;49.092;8.542;2023-02-01T01:57:25;2.77;;;1.93;;
9892;SDS011;4985;49.092;8.542;2023-02-01T01:59:58;2.00;;;1.80;;
9892;SDS011;4985;49.092;8.542;2023-02-01T02:02:28;2.60;;;1.83;;
9892;SDS011;4985;49.092;8.542;2023-02-01T02:04:55;2.43;;;1.90;;
9892;SDS011;4985;49.092;8.542;2023-02-01T02:07:23;2.23;;;1.93;;
9892;SDS011;4985;49.092;8.542;2023-02-01T02:09:55;4.17;;;1.93;;
9892;SDS011;4985;49.092;8.542;2023-02-01T02:12:22;2.00;;;1.77;;
9892;SDS011;4985;49.092;8.542;2023-02-01T02:14:49;3.00;;;2.10;;
9892;SDS011;4985;49.092;8.542;2023-02-01T02:17:19;2.70;;;2.07;;
9892;SDS011;4985;49.092;8.542;2023-02-01T02:20:20;3.47;;;2.00;;
9892;SDS011;4985;49.092;8.542;2023-02-01T02:26:10;1.90;;;1.70;;
9892;SDS011;4985;49.092;8.542;2023-02-01T02:29:00;2.10;;;1.60;;
9892;SDS011;4985;49.092;8.542;2023-02-01T02:31:50;2.90;;;1.90;;
9892;SDS011;4985;49.092;8.542;2023-02-01T02:34:32;2.17;;;1.87;;
9892;SDS011;4985;49.092;8.542;2023-02-01T02:37:04;2.27;;;1.73;;
9892;SDS011;4985;49.092;8.542;2023-02-01T02:39:46;2.27;;;2.07;;
9892;SDS011;4985;49.092;8.542;2023-02-01T02:42:20;1.83;;;1.70;;
9892;SDS011;4985;49.092;8.542;2023-02-01T02:45:14;2.00;;;1.80;;
9892;SDS011;4985;49.092;8.542;2023-02-01T02:48:07;2.10;;;1.90;;
9892;SDS011;4985;49.092;8.542;2023-02-01T02:50:42;2.43;;;1.90;;
9892;SDS011;4985;49.092;8.542;2023-02-01T02:53:32;2.10;;;1.70;;
9892;SDS011;4985;49.092;8.542;2023-02-01T02:56:19;1.97;;;1.70;;
9892;SDS011;4985;49.092;8.542;2023-02-01T02:59:06;2.30;;;1.50;;
9892;SDS011;4985;49.092;8.542;2023-02-01T03:01:52;1.97;;;1.57;;
9892;SDS011;4985;49.092;8.542;2023-02-01T03:04:37;2.17;;;1.80;;
9892;SDS011;4985;49.092;8.542;2023-02-01T03:07:12;2.27;;;1.80;;
9892;SDS011;4985;49.092;8.542;2023-02-01T03:09:41;2.83;;;1.80;;
9892;SDS011;4985;49.092;8.542;2023-02-01T03:12:12;1.50;;;1.40;;
9892;SDS011;4985;49.092;8.542;2023-02-01T03:15:00;2.73;;;1.57;;
9892;SDS011;4985;49.092;8.542;2023-02-01T03:17:33;2.67;;;1.60;;
9892;SDS011;4985;49.092;8.542;2023-02-01T03:20:03;1.90;;;1.47;;
9892;SDS011;4985;49.092;8.542;2023-02-01T03:22:32;2.03;;;1.83;;
9892;SDS011;4985;49.092;8.542;2023-02-01T03:25:02;1.90;;;1.73;;
9892;SDS011;4985;49.092;8.542;2023-02-01T03:27:32;1.43;;;1.33;;
9892;SDS011;4985;49.092;8.542;2023-02-01T03:30:03;2.10;;;1.90;;
9892;SDS011;4985;49.092;8.542;2023-02-01T03:32:34;2.33;;;1.67;;
9892;SDS011;4985;49.092;8.542;2023-02-01T03:35:17;2.43;;;1.80;;
9892;SDS011;4985;49.092;8.542;2023-02-01T03:37:48;2.00;;;1.80;;
9892;SDS011;4985;49.092;8.542;2023-02-01T03:40:16;1.60;;;1.50;;
9892;SDS011;4985;49.092;8.542;2023-02-01T03:42:45;2.33;;;1.87;;
9892;SDS011;4985;49.092;8.542;2023-02-01T03:45:17;3.07;;;1.90;;
9892;SDS011;4985;49.092;8.542;2023-02-01T03:47:49;1.87;;;1.67;;
9892;SDS011;4985;49.092;8.542;2023-02-01T03:50:20;2.30;;;1.80;;
9892;SDS011;4985;49.092;8.542;2023-02-01T03:52:50;2.50;;;2.00;;
9892;SDS011;4985;49.092;8.542;2023-02-01T03:55:21;1.73;;;1.63;;
9892;SDS011;4985;49.092;8.542;2023-02-01T03:57:50;2.00;;;1.80;;
9892;SDS011;4985;49.092;8.542;2023-02-01T04:00:20;2.00;;;1.40;;
9892;SDS011;4985;49.092;8.542;2023-02-01T04:02:48;2.30;;;1.63;;
9892;SDS011;4985;49.092;8.542;2023-02-01T04:05:15;2.00;;;1.70;;
9892;SDS011;4985;49.092;8.542;2023-02-01T04:07:42;3.00;;;1.60;;
9892;SDS011;4985;49.092;8.542;2023-02-01T04:10:11;1.97;;;1.70;;
9892;SDS011;4985;49.092;8.542;2023-02-01T04:12:38;2.37;;;2.00;;
9892;SDS011;4985;49.092;8.542;2023-02-01T04:15:05;2.33;;;1.80;;
9892;SDS011;4985;49.092;8.542;2023-02-01T04:17:32;1.70;;;1.50;;
9892;SDS011;4985;49.092;8.542;2023-02-01T04:19:59;2.17;;;1.67;;
9892;SDS011;4985;49.092;8.542;2023-02-01T04:22:25;2.17;;;1.80;;
9892;SDS011;4985;49.092;8.542;2023-02-01T04:24:53;3.17;;;2.10;;
9892;SDS011;4985;49.092;8.542;2023-02-01T04:27:21;1.77;;;1.60;;
9892;SDS011;4985;49.092;8.542;2023-02-01T04:29:48;2.83;;;1.90;;
9892;SDS011;4985;49.092;8.542;2023-02-01T04:32:15;2.50;;;1.93;;
9892;SDS011;4985;49.092;8.542;2023-02-01T04:34:42;2.20;;;1.90;;
9892;SDS011;4985;49.092;8.542;2023-02-01T04:37:08;2.13;;;1.70;;
9892;SDS011;4985;49.092;8.542;2023-02-01T04:39:35;3.20;;;1.90;;
9892;SDS011;4985;49.092;8.542;2023-02-01T04:42:01;2.47;;;1.87;;
9892;SDS011;4985;49.092;8.542;2023-02-01T04:44:29;2.00;;;1.80;;
9892;SDS011;4985;49.092;8.542;2023-02-01T04:46:56;2.37;;;2.17;;
9892;SDS011;4985;49.092;8.542;2023-02-01T04:49:23;2.20;;;2.00;;
9892;SDS011;4985;49.092;8.542;2023-02-01T04:51:51;2.40;;;2.00;;
9892;SDS011;4985;49.092;8.542;2023-02-01T04:54:18;1.83;;;1.60;;
9892;SDS011;4985;49.092;8.542;2023-02-01T04:56:45;2.40;;;1.97;;
9892;SDS011;4985;49.092;8.542;2023-02-01T04:59:11;2.47;;;2.00;;
9892;SDS011;4985;49.092;8.542;2023-02-01T05:01:39;2.30;;;1.90;;
9892;SDS011;4985;49.092;8.542;2023-02-01T05:04:06;3.43;;;2.00;;
9892;SDS011;4985;49.092;8.542;2023-02-01T05:06:32;2.80;;;1.77;;
9892;SDS011;4985;49.092;8.542;2023-02-01T05:08:59;4.13;;;2.53;;
9892;SDS011;4985;49.092;8.542;2023-02-01T05:11:25;2.20;;;1.77;;
9892;SDS011;4985;49.092;8.542;2023-02-01T05:14:10;2.27;;;1.80;;
9892;SDS011;4985;49.092;8.542;2023-02-01T05:16:36;1.97;;;1.67;;
9892;SDS011;4985;49.092;8.542;2023-02-01T05:19:04;1.97;;;1.40;;
9892;SDS011;4985;49.092;8.542;2023-02-01T05:21:31;2.57;;;1.60;;
9892;SDS011;4985;49.092;8.542;2023-02-01T05:23:57;2.17;;;1.80;;
9892;SDS011;4985;49.092;8.542;2023-02-01T05:26:38;1.93;;;1.50;;
9892;SDS011;4985;49.092;8.542;2023-02-01T05:29:05;2.90;;;1.60;;
9892;SDS011;4985;49.092;8.542;2023-02-01T05:31:33;1.60;;;1.50;;
9892;SDS011;4985;49.092;8.542;2023-02-01T05:33:59;2.27;;;1.80;;
9892;SDS011;4985;49.092;8.542;2023-02-01T05:36:27;2.10;;;1.80;;
9892;SDS011;4985;49.092;8.542;2023-02-01T05:38:54;2.00;;;1.60;;
9892;SDS011;4985;49.092;8.542;2023-02-01T05:41:21;2.07;;;1.87;;
9892;SDS011;4985;49.092;8.542;2023-02-01T05:43:47;2.67;;;1.80;;
9892;SDS011;4985;49.092;8.542;2023-02-01T05:46:14;3.57;;;1.70;;
9892;SDS011;4985;49.092;8.542;2023-02-01T05:48:41;2.53;;;2.10;;
9892;SDS011;4985;49.092;8.542;2023-02-01T05:51:08;2.50;;;2.07;;
9892;SDS011;4985;49.092;8.542;2023-02-01T05:53:36;3.50;;;2.07;;
9892;SDS011;4985;49.092;8.542;2023-02-01T05:56:03;2.37;;;2.00;;
9892;SDS011;4985;49.092;8.542;2023-02-01T05:58:30;2.30;;;1.93;;
9892;SDS011;4985;49.092;8.542;2023-02-01T06:00:58;2.30;;;2.00;;
9892;SDS011;4985;49.092;8.542;2023-02-01T06:03:25;2.67;;;2.03;;
9892;SDS011;4985;49.092;8.542;2023-02-01T06:05:52;4.13;;;2.70;;
9892;SDS011;4985;49.092;8.542;2023-02-01T06:08:19;4.83;;;2.40;;
9892;SDS011;4985;49.092;8.542;2023-02-01T06:10:47;3.57;;;2.63;;
9892;SDS011;4985;49.092;8.542;2023-02-01T06:13:13;3.73;;;2.57;;
9892;SDS011;4985;49.092;8.542;2023-02-01T06:15:40;5.60;;;2.27;;
9892;SDS011;4985;49.092;8.542;2023-02-01T06:18:09;3.23;;;2.50;;
9892;SDS011;4985;49.092;8.542;2023-02-01T06:20:35;3.83;;;2.73;;
9892;SDS011;4985;49.092;8.542;2023-02-01T06:23:02;4.43;;;2.30;;
9892;SDS011;4985;49.092;8.542;2023-02-01T06:25:29;5.10;;;2.50;;
9892;SDS011;4985;49.092;8.542;2023-02-01T06:28:00;4.47;;;2.77;;
9892;SDS011;4985;49.092;8.542;2023-02-01T06:30:30;2.90;;;2.13;;
9892;SDS011;4985;49.092;8.542;2023-02-01T06:32:57;4.10;;;2.67;;
9892;SDS011;4985;49.092;8.542;2023-02-01T06:35:23;5.40;;;2.83;;
9892;SDS011;4985;49.092;8.542;2023-02-01T06:37:51;5.17;;;2.70;;
9892;SDS011;4985;49.092;8.542;2023-02-01T06:40:18;3.93;;;2.73;;
9892;SDS011;4985;49.092;8.542;2023-02-01T06:42:44;6.57;;;2.90;;
9892;SDS011;4985;49.092;8.542;2023-02-01T06:45:12;4.67;;;2.63;;
9892;SDS011;4985;49.092;8.542;2023-02-01T06:47:39;7.53;;;2.87;;
9892;SDS011;4985;49.092;8.542;2023-02-01T06:50:07;6.03;;;3.17;;
9892;SDS011;4985;49.092;8.542;2023-02-01T06:52:35;5.20;;;3.17;;
9892;SDS011;4985;49.092;8.542;2023-02-01T06:55:01;2.57;;;2.20;;
9892;SDS011;4985;49.092;8.542;2023-02-01T06:57:28;4.90;;;2.80;;
9892;SDS011;4985;49.092;8.542;2023-02-01T06:59:55;3.23;;;2.17;;
9892;SDS011;4985;49.092;8.542;2023-02-01T07:02:24;5.20;;;3.70;;
9892;SDS011;4985;49.092;8.542;2023-02-01T07:04:51;4.27;;;2.73;;
9892;SDS011;4985;49.092;8.542;2023-02-01T07:07:17;3.40;;;2.37;;
9892;SDS011;4985;49.092;8.542;2023-02-01T07:09:47;3.23;;;2.40;;
9892;SDS011;4985;49.092;8.542;2023-02-01T07:12:14;3.23;;;2.30;;
9892;SDS011;4985;49.092;8.542;2023-02-01T07:14:40;3.50;;;2.50;;
9892;SDS011;4985;49.092;8.542;2023-02-01T07:17:07;5.33;;;2.87;;
9892;SDS011;4985;49.092;8.542;2023-02-01T07:19:35;5.53;;;2.80;;
9892;SDS011;4985;49.092;8.542;2023-02-01T07:22:01;5.43;;;2.60;;
9892;SDS011;4985;49.092;8.542;2023-02-01T07:24:28;4.87;;;3.10;;
9892;SDS011;4985;49.092;8.542;2023-02-01T07:26:56;5.93;;;3.27;;
9892;SDS011;4985;49.092;8.542;2023-02-01T07:29:23;5.53;;;3.20;;
9892;SDS011;4985;49.092;8.542;2023-02-01T07:31:49;3.60;;;2.23;;
9892;SDS011;4985;49.092;8.542;2023-02-01T07:34:16;4.17;;;2.47;;
9892;SDS011;4985;49.092;8.542;2023-02-01T07:36:44;6.40;;;2.93;;
9892;SDS011;4985;49.092;8.542;2023-02-01T07:39:10;4.30;;;2.80;;
9892;SDS011;4985;49.092;8.542;2023-02-01T07:41:37;2.30;;;1.97;;
9892;SDS011;4985;49.092;8.542;2023-02-01T07:44:03;4.53;;;2.70;;
9892;SDS011;4985;49.092;8.542;2023-02-01T07:46:30;4.73;;;2.70;;
9892;SDS011;4985;49.092;8.542;2023-02-01T07:48:57;3.80;;;2.77;;
9892;SDS011;4985;49.092;8.542;2023-02-01T07:51:23;5.50;;;2.57;;
9892;SDS011;4985;49.092;8.542;2023-02-01T07:53:51;4.07;;;2.33;;
9892;SDS011;4985;49.092;8.542;2023-02-01T07:56:19;4.87;;;2.83;;
9892;SDS011;4985;49.092;8.542;2023-02-01T07:58:47;4.97;;;2.80;;
9892;SDS011;4985;49.092;8.542;2023-02-01T08:01:14;3.20;;;2.40;;
9892;SDS011;4985;49.092;8.542;2023-02-01T08:03:47;7.03;;;2.87;;
9892;SDS011;4985;49.092;8.542;2023-02-01T08:06:14;5.90;;;3.13;;
9892;SDS011;4985;49.092;8.542;2023-02-01T08:08:41;4.77;;;2.40;;
9892;SDS011;4985;49.092;8.542;2023-02-01T08:11:11;4.67;;;2.70;;
9892;SDS011;4985;49.092;8.542;2023-02-01T08:13:38;3.90;;;2.10;;
9892;SDS011;4985;49.092;8.542;2023-02-01T08:16:05;6.27;;;2.90;;
9892;SDS011;4985;49.092;8.542;2023-02-01T08:18:33;4.63;;;2.57;;
9892;SDS011;4985;49.092;8.542;2023-02-01T08:21:02;5.53;;;2.57;;
9892;SDS011;4985;49.092;8.542;2023-02-01T08:23:30;6.90;;;2.30;;
9892;SDS011;4985;49.092;8.542;2023-02-01T08:26:04;6.73;;;2.77;;
9892;SDS011;4985;49.092;8.542;2023-02-01T08:28:35;6.83;;;2.77;;
9892;SDS011;4985;49.092;8.542;2023-02-01T08:31:06;6.87;;;3.00;;
9892;SDS011;4985;49.092;8.542;2023-02-01T08:33:34;4.63;;;2.67;;
9892;SDS011;4985;49.092;8.542;2023-02-01T08:36:02;5.50;;;2.80;;
9892;SDS011;4985;49.092;8.542;2023-02-01T08:38:30;6.27;;;2.20;;
9892;SDS011;4985;49.092;8.542;2023-02-01T08:40:57;4.60;;;2.30;;
9892;SDS011;4985;49.092;8.542;2023-02-01T08:43:23;4.70;;;2.20;;
9892;SDS011;4985;49.092;8.542;2023-02-01T08:45:51;8.53;;;2.87;;
9892;SDS011;4985;49.092;8.542;2023-02-01T08:48:20;6.90;;;3.13;;
9892;SDS011;4985;49.092;8.542;2023-02-01T08:50:46;3.73;;;1.80;;
9892;SDS011;4985;49.092;8.542;2023-02-01T08:53:13;4.10;;;2.03;;
9892;SDS011;4985;49.092;8.542;2023-02-01T08:55:40;4.97;;;2.60;;
9892;SDS011;4985;49.092;8.542;2023-02-01T08:58:07;4.87;;;2.00;;
9892;SDS011;4985;49.092;8.542;2023-02-01T09:00:33;4.37;;;2.20;;
9892;SDS011;4985;49.092;8.542;2023-02-01T09:03:01;5.13;;;2.40;;
9892;SDS011;4985;49.092;8.542;2023-02-01T09:05:28;4.53;;;2.60;;
9892;SDS011;4985;49.092;8.542;2023-02-01T09:07:54;6.30;;;2.93;;
9892;SDS011;4985;49.092;8.542;2023-02-01T09:10:21;5.87;;;2.40;;
9892;SDS011;4985;49.092;8.542;2023-02-01T09:12:47;4.50;;;2.70;;
9892;SDS011;4985;49.092;8.542;2023-02-01T09:15:14;6.40;;;3.67;;
9892;SDS011;4985;49.092;8.542;2023-02-01T09:17:41;7.13;;;2.83;;
9892;SDS011;4985;49.092;8.542;2023-02-01T09:20:11;6.97;;;2.47;;
9892;SDS011;4985;49.092;8.542;2023-02-01T09:22:38;4.10;;;2.10;;
9892;SDS011;4985;49.092;8.542;2023-02-01T09:25:05;6.97;;;2.47;;
9892;SDS011;4985;49.092;8.542;2023-02-01T09:27:32;10.37;;;2.90;;
9892;SDS011;4985;49.092;8.542;2023-02-01T09:29:59;2.67;;;1.60;;
9892;SDS011;4985;49.092;8.542;2023-02-01T09:32:26;7.43;;;2.90;;
9892;SDS011;4985;49.092;8.542;2023-02-01T09:34:52;7.07;;;2.67;;
9892;SDS011;4985;49.092;8.542;2023-02-01T09:37:20;5.70;;;2.70;;
9892;SDS011;4985;49.092;8.542;2023-02-01T09:39:47;5.20;;;2.40;;
9892;SDS011;4985;49.092;8.542;2023-02-01T09:42:21;6.47;;;2.50;;
9892;SDS011;4985;49.092;8.542;2023-02-01T09:45:08;7.67;;;3.00;;
9892;SDS011;4985;49.092;8.542;2023-02-01T09:47:43;6.00;;;2.47;;
9892;SDS011;4985;49.092;8.542;2023-02-01T09:50:15;5.67;;;2.20;;
9892;SDS011;4985;49.092;8.542;2023-02-01T09:52:48;7.33;;;2.87;;
9892;SDS011;4985;49.092;8.542;2023-02-01T09:55:20;5.63;;;2.83;;
9892;SDS011;4985;49.092;8.542;2023-02-01T09:57:50;7.57;;;3.00;;
9892;SDS011;4985;49.092;8.542;2023-02-01T10:00:23;6.20;;;2.23;;
9892;SDS011;4985;49.092;8.542;2023-02-01T10:02:53;7.50;;;2.20;;
9892;SDS011;4985;49.092;8.542;2023-02-01T10:05:23;10.60;;;3.30;;
9892;SDS011;4985;49.092;8.542;2023-02-01T10:08:08;7.30;;;3.47;;
9892;SDS011;4985;49.092;8.542;2023-02-01T10:10:43;6.77;;;2.60;;
9892;SDS011;4985;49.092;8.542;2023-02-01T10:13:17;6.53;;;2.40;;
9892;SDS011;4985;49.092;8.542;2023-02-01T10:16:00;8.13;;;2.77;;
9892;SDS011;4985;49.092;8.542;2023-02-01T10:18:56;7.70;;;2.80;;
9892;SDS011;4985;49.092;8.542;2023-02-01T10:21:42;6.53;;;3.00;;
9892;SDS011;4985;49.092;8.542;2023-02-01T10:24:24;5.03;;;2.37;;
9892;SDS011;4985;49.092;8.542;2023-02-01T10:26:59;6.73;;;2.47;;
9892;SDS011;4985;49.092;8.542;2023-02-01T10:29:31;6.13;;;2.80;;
9892;SDS011;4985;49.092;8.542;2023-02-01T10:32:02;5.17;;;2.20;;
9892;SDS011;4985;49.092;8.542;2023-02-01T10:34:36;5.63;;;2.47;;
9892;SDS011;4985;49.092;8.542;2023-02-01T10:37:08;5.83;;;2.53;;
9892;SDS011;4985;49.092;8.542;2023-02-01T10:39:45;5.37;;;2.57;;
9892;SDS011;4985;49.092;8.542;2023-02-01T10:42:13;5.93;;;2.60;;
9892;SDS011;4985;49.092;8.542;2023-02-01T10:44:42;5.60;;;2.67;;
9892;SDS011;4985;49.092;8.542;2023-02-01T10:47:13;8.47;;;2.83;;
9892;SDS011;4985;49.092;8.542;2023-02-01T10:49:41;5.57;;;2.20;;
9892;SDS011;4985;49.092;8.542;2023-02-01T10:52:14;8.07;;;3.23;;
9892;SDS011;4985;49.092;8.542;2023-02-01T10:54:43;7.33;;;2.43;;
9892;SDS011;4985;49.092;8.542;2023-02-01T10:57:20;7.53;;;2.53;;
9892;SDS011;4985;49.092;8.542;2023-02-01T10:59:48;9.87;;;3.10;;
9892;SDS011;4985;49.092;8.542;2023-02-01T11:02:17;9.03;;;3.13;;
9892;SDS011;4985;49.092;8.542;2023-02-01T11:04:51;8.27;;;2.83;;
9892;SDS011;4985;49.092;8.542;2023-02-01T11:07:25;5.93;;;2.53;;
9892;SDS011;4985;49.092;8.542;2023-02-01T11:09:52;5.93;;;3.00;;
9892;SDS011;4985;49.092;8.542;2023-02-01T11:12:27;9.40;;;2.90;;
9892;SDS011;4985;49.092;8.542;2023-02-01T11:14:57;7.67;;;2.63;;
9892;SDS011;4985;49.092;8.542;2023-02-01T11:17:28;6.50;;;2.93;;
9892;SDS011;4985;49.092;8.542;2023-02-01T11:20:00;8.43;;;3.27;;
9892;SDS011;4985;49.092;8.542;2023-02-01T11:22:28;8.20;;;3.30;;
9892;SDS011;4985;49.092;8.542;2023-02-01T11:24:55;5.70;;;2.80;;
9892;SDS011;4985;49.092;8.542;2023-02-01T11:27:23;4.87;;;2.47;;
9892;SDS011;4985;49.092;8.542;2023-02-01T11:29:53;3.90;;;2.40;;
9892;SDS011;4985;49.092;8.542;2023-02-01T11:32:25;7.77;;;2.70;;
9892;SDS011;4985;49.092;8.542;2023-02-01T11:34:54;8.83;;;2.30;;
9892;SDS011;4985;49.092;8.542;2023-02-01T11:37:24;7.07;;;2.77;;
9892;SDS011;4985;49.092;8.542;2023-02-01T11:39:54;5.57;;;2.20;;
9892;SDS011;4985;49.092;8.542;2023-02-01T11:42:22;7.20;;;2.90;;
9892;SDS011;4985;49.092;8.542;2023-02-01T11:44:49;10.27;;;3.40;;
9892;SDS011;4985;49.092;8.542;2023-02-01T11:47:24;9.27;;;3.17;;
9892;SDS011;4985;49.092;8.542;2023-02-01T11:49:52;5.07;;;2.50;;
9892;SDS011;4985;49.092;8.542;2023-02-01T11:52:25;9.43;;;2.93;;
9892;SDS011;4985;49.092;8.542;2023-02-01T11:55:17;7.27;;;2.93;;
9892;SDS011;4985;49.092;8.542;2023-02-01T11:58:04;6.50;;;2.47;;
9892;SDS011;4985;49.092;8.542;2023-02-01T12:00:47;6.33;;;2.63;;
9892;SDS011;4985;49.092;8.542;2023-02-01T12:06:24;7.33;;;3.00;;
9892;SDS011;4985;49.092;8.542;2023-02-01T12:09:02;6.60;;;2.87;;
9892;SDS011;4985;49.092;8.542;2023-02-01T12:11:46;7.00;;;2.63;;
9892;SDS011;4985;49.092;8.542;2023-02-01T12:14:24;7.53;;;3.03;;
9892;SDS011;4985;49.092;8.542;2023-02-01T12:17:14;7.83;;;3.10;;
9892;SDS011;4985;49.092;8.542;2023-02-01T12:20:02;3.80;;;2.13;;
9892;SDS011;4985;49.092;8.542;2023-02-01T12:22:43;7.83;;;3.23;;
9892;SDS011;4985;49.092;8.542;2023-02-01T12:25:20;9.00;;;2.73;;
9892;SDS011;4985;49.092;8.542;2023-02-01T12:28:07;10.33;;;3.40;;
9892;SDS011;4985;49.092;8.542;2023-02-01T12:33:58;5.67;;;3.13;;
9892;SDS011;4985;49.092;8.542;2023-02-01T12:36:43;5.53;;;2.80;;
9892;SDS011;4985;49.092;8.542;2023-02-01T12:39:17;10.17;;;2.57;;
9892;SDS011;4985;49.092;8.542;2023-02-01T12:41:51;6.53;;;3.30;;
9892;SDS011;4985;49.092;8.542;2023-02-01T12:44:27;8.97;;;2.90;;
9892;SDS011;4985;49.092;8.542;2023-02-01T12:46:59;8.80;;;2.90;;
9892;SDS011;4985;49.092;8.542;2023-02-01T12:49:32;6.70;;;3.07;;
9892;SDS011;4985;49.092;8.542;2023-02-01T12:52:11;7.33;;;2.70;;
9892;SDS011;4985;49.092;8.542;2023-02-01T12:54:45;8.70;;;3.30;;
9892;SDS011;4985;49.092;8.542;2023-02-01T12:57:16;5.33;;;2.73;;
9892;SDS011;4985;49.092;8.542;2023-02-01T12:59:49;8.63;;;3.30;;
9892;SDS011;4985;49.092;8.542;2023-02-01T13:02:22;9.10;;;2.57;;
9892;SDS011;4985;49.092;8.542;2023-02-01T13:04:56;8.07;;;3.10;;
9892;SDS011;4985;49.092;8.542;2023-02-01T13:07:30;7.27;;;2.80;;
9892;SDS011;4985;49.092;8.542;2023-02-01T13:10:03;9.30;;;2.90;;
9892;SDS011;4985;49.092;8.542;2023-02-01T13:12:40;7.37;;;2.90;;
9892;SDS011;4985;49.092;8.542;2023-02-01T13:15:11;6.57;;;2.60;;
9892;SDS011;4985;49.092;8.542;2023-02-01T13:17:42;6.50;;;2.90;;
9892;SDS011;4985;49.092;8.542;2023-02-01T13:20:15;7.70;;;2.60;;
9892;SDS011;4985;49.092;8.542;2023-02-01T13:22:50;7.37;;;2.50;;
9892;SDS011;4985;49.092;8.542;2023-02-01T13:25:24;8.30;;;3.40;;
9892;SDS011;4985;49.092;8.542;2023-02-01T13:27:58;8.97;;;2.77;;
9892;SDS011;4985;49.092;8.542;2023-02-01T13:30:30;9.40;;;3.37;;
9892;SDS011;4985;49.092;8.542;2023-02-01T13:33:10;6.10;;;2.63;;
9892;SDS011;4985;49.092;8.542;2023-02-01T13:35:52;9.73;;;2.83;;
9892;SDS011;4985;49.092;8.542;2023-02-01T13:38:36;11.03;;;2.83;;
9892;SDS011;4985;49.092;8.542;2023-02-01T13:41:25;6.93;;;2.23;;
9892;SDS011;4985;49.092;8.542;2023-02-01T13:43:55;8.83;;;2.33;;
9892;SDS011;4985;49.092;8.542;2023-02-01T13:46:24;8.90;;;2.80;;
9892;SDS011;4985;49.092;8.542;2023-02-01T13:48:54;6.53;;;2.43;;
9892;SDS011;4985;49.092;8.542;2023-02-01T13:51:31;9.70;;;2.40;;
9892;SDS011;4985;49.092;8.542;2023-02-01T13:54:02;7.60;;;2.87;;
9892;SDS011;4985;49.092;8.542;2023-02-01T13:56:39;11.40;;;2.97;;
9892;SDS011;4985;49.092;8.542;2023-02-01T14:08:22;8.00;;;3.40;;
9892;SDS011;4985;49.092;8.542;2023-02-01T14:10:52;9.60;;;3.10;;
9892;SDS011;4985;49.092;8.542;2023-02-01T14:13:25;5.77;;;2.50;;
9892;SDS011;4985;49.092;8.542;2023-02-01T14:16:10;7.10;;;3.07;;
9892;SDS011;4985;49.092;8.542;2023-02-01T14:18:58;10.33;;;3.20;;
9892;SDS011;4985;49.092;8.542;2023-02-01T14:21:27;10.67;;;2.93;;
9892;SDS011;4985;49.092;8.542;2023-02-01T14:23:58;7.77;;;2.73;;
9892;SDS011;4985;49.092;8.542;2023-02-01T14:26:40;7.20;;;2.33;;
9892;SDS011;4985;49.092;8.542;2023-02-01T14:29:15;6.23;;;2.10;;
9892;SDS011;4985;49.092;8.542;2023-02-01T14:31:58;10.07;;;3.30;;
9892;SDS011;4985;49.092;8.542;2023-02-01T14:34:33;9.43;;;2.23;;
9892;SDS011;4985;49.092;8.542;2023-02-01T14:37:08;8.87;;;3.40;;
9892;SDS011;4985;49.092;8.542;2023-02-01T14:39:40;7.93;;;2.70;;
9892;SDS011;4985;49.092;8.542;2023-02-01T14:42:22;7.07;;;2.70;;
9892;SDS011;4985;49.092;8.542;2023-02-01T14:44:52;9.23;;;3.13;;
9892;SDS011;4985;49.092;8.542;2023-02-01T14:47:30;9.30;;;2.70;;
9892;SDS011;4985;49.092;8.542;2023-02-01T14:52:49;7.37;;;2.60;;
9892;SDS011;4985;49.092;8.542;2023-02-01T14:55:25;6.43;;;2.70;;
9892;SDS011;4985;49.092;8.542;2023-02-01T14:57:57;9.13;;;2.90;;
9892;SDS011;4985;49.092;8.542;2023-02-01T15:00:28;9.80;;;3.13;;
9892;SDS011;4985;49.092;8.542;2023-02-01T15:05:59;5.83;;;2.43;;
9892;SDS011;4985;49.092;8.542;2023-02-01T15:08:26;14.47;;;2.83;;
9892;SDS011;4985;49.092;8.542;2023-02-01T15:10:56;8.43;;;2.60;;
9892;SDS011;4985;49.092;8.542;2023-02-01T15:13:28;9.20;;;2.90;;
9892;SDS011;4985;49.092;8.542;2023-02-01T15:16:02;9.37;;;3.00;;
9892;SDS011;4985;49.092;8.542;2023-02-01T15:18:30;9.50;;;2.90;;
9892;SDS011;4985;49.092;8.542;2023-02-01T15:20:58;12.13;;;2.80;;
9892;SDS011;4985;49.092;8.542;2023-02-01T15:23:25;6.17;;;2.70;;
9892;SDS011;4985;49.092;8.542;2023-02-01T15:25:52;7.23;;;3.03;;
9892;SDS011;4985;49.092;8.542;2023-02-01T15:28:20;7.23;;;2.40;;
9892;SDS011;4985;49.092;8.542;2023-02-01T15:30:58;8.70;;;2.20;;
9892;SDS011;4985;49.092;8.542;2023-02-01T15:33:25;7.63;;;2.83;;
9892;SDS011;4985;49.092;8.542;2023-02-01T15:35:53;9.73;;;2.80;;
9892;SDS011;4985;49.092;8.542;2023-02-01T15:38:32;6.83;;;2.70;;
9892;SDS011;4985;49.092;8.542;2023-02-01T15:41:02;8.60;;;3.27;;
9892;SDS011;4985;49.092;8.542;2023-02-01T15:43:32;5.73;;;2.30;;
9892;SDS011;4985;49.092;8.542;2023-02-01T15:46:02;8.53;;;2.87;;
9892;SDS011;4985;49.092;8.542;2023-02-01T15:48:36;7.40;;;3.10;;
9892;SDS011;4985;49.092;8.542;2023-02-01T15:51:10;9.93;;;3.47;;
9892;SDS011;4985;49.092;8.542;2023-02-01T15:53:39;8.47;;;2.80;;
9892;SDS011;4985;49.092;8.542;2023-02-01T15:56:10;9.07;;;3.03;;
9892;SDS011;4985;49.092;8.542;2023-02-01T15:58:37;8.60;;;3.17;;
9892;SDS011;4985;49.092;8.542;2023-02-01T16:01:11;11.00;;;3.17;;
9892;SDS011;4985;49.092;8.542;2023-02-01T16:03:39;8.10;;;2.40;;